createdAt,value
2019-04-06T00:01:45.114Z,12.10
2019-04-06T00:04:15.300Z,17.00
2019-04-06T00:06:45.503Z,24.47
2019-04-06T00:09:15.687Z,16.80
2019-04-06T00:11:45.871Z,18.60
2019-04-06T00:14:16.133Z,20.20
2019-04-06T00:16:47.234Z,21.90
2019-04-06T00:19:17.412Z,18.07
2019-04-06T00:21:47.660Z,21.87
2019-04-06T00:24:17.930Z,22.93
2019-04-06T00:26:48.197Z,29.00
2019-04-06T00:29:18.412Z,27.43
2019-04-06T00:31:57.983Z,27.80
2019-04-06T00:34:28.124Z,22.57
2019-04-06T00:36:58.263Z,29.07
2019-04-06T00:39:28.496Z,28.83
2019-04-06T00:41:58.601Z,30.40
2019-04-06T00:44:28.814Z,28.87
2019-04-06T00:46:58.967Z,24.17
2019-04-06T00:49:29.105Z,25.07
2019-04-06T00:51:59.238Z,27.53
2019-04-06T00:54:29.454Z,22.87
2019-04-06T00:56:59.715Z,21.23
2019-04-06T00:59:29.962Z,20.60
2019-04-06T01:02:00.160Z,21.33
2019-04-06T01:04:30.277Z,19.87
2019-04-06T01:07:00.508Z,22.50
2019-04-06T01:09:30.775Z,21.03
2019-04-06T01:12:00.998Z,22.73
2019-04-06T01:14:31.287Z,22.40
2019-04-06T01:17:01.449Z,23.57
2019-04-06T01:19:31.687Z,21.50
2019-04-06T01:22:01.907Z,23.13
2019-04-06T01:24:32.109Z,18.43
2019-04-06T01:27:02.347Z,31.93
2019-04-06T01:29:32.452Z,22.60
2019-04-06T01:32:02.692Z,26.97
2019-04-06T01:34:32.809Z,31.23
2019-04-06T01:37:02.973Z,23.87
2019-04-06T01:39:33.139Z,23.87
2019-04-06T01:42:04.090Z,24.43
2019-04-06T01:44:34.326Z,24.53
2019-04-06T01:47:04.555Z,26.83
2019-04-06T01:49:34.864Z,28.97
2019-04-06T01:52:05.084Z,31.10
2019-04-06T01:54:36.318Z,33.83
2019-04-06T01:57:06.758Z,31.40
2019-04-06T01:59:36.972Z,24.80
2019-04-06T02:02:12.041Z,33.30
2019-04-06T02:04:42.200Z,33.37
2019-04-06T02:07:12.469Z,40.13
2019-04-06T02:09:42.593Z,25.13
2019-04-06T02:12:12.757Z,39.47
2019-04-06T02:14:42.889Z,28.67
2019-04-06T02:17:13.099Z,25.57
2019-04-06T02:19:43.171Z,32.13
2019-04-06T02:22:13.374Z,25.97
2019-04-06T02:24:43.494Z,36.43
2019-04-06T02:27:14.561Z,29.50
2019-04-06T02:29:45.820Z,32.90
2019-04-06T02:32:37.234Z,28.87
2019-04-06T02:35:25.290Z,30.97
2019-04-06T02:38:05.002Z,30.73
2019-04-06T02:40:39.916Z,34.23
2019-04-06T02:43:13.786Z,33.10
2019-04-06T02:45:44.856Z,41.10
2019-04-06T02:48:15.172Z,40.80
2019-04-06T02:50:45.371Z,33.27
2019-04-06T02:53:15.546Z,41.60
2019-04-06T02:55:45.713Z,31.90
2019-04-06T02:58:16.044Z,34.50
2019-04-06T03:00:46.492Z,40.53
2019-04-06T03:03:16.931Z,42.43
2019-04-06T03:05:47.290Z,38.63
2019-04-06T03:08:18.629Z,36.63
2019-04-06T03:10:48.958Z,41.57
2019-04-06T03:13:19.147Z,45.30
2019-04-06T03:15:49.423Z,44.50
2019-04-06T03:18:19.544Z,40.80
2019-04-06T03:20:49.762Z,39.87
2019-04-06T03:23:19.984Z,34.27
2019-04-06T03:25:50.216Z,39.27
2019-04-06T03:28:20.352Z,40.90
2019-04-06T03:30:50.488Z,32.50
2019-04-06T03:33:20.700Z,38.03
2019-04-06T03:35:51.825Z,37.53
2019-04-06T03:38:22.164Z,37.93
2019-04-06T03:40:52.353Z,30.67
2019-04-06T03:43:22.506Z,41.17
2019-04-06T03:45:52.666Z,38.98
2019-04-06T03:48:22.807Z,33.87
2019-04-06T03:50:52.838Z,33.93
2019-04-06T03:53:22.910Z,34.80
2019-04-06T03:55:53.011Z,33.80
2019-04-06T03:58:23.055Z,42.80
2019-04-06T04:00:53.409Z,39.37
2019-04-06T04:03:23.611Z,39.63
2019-04-06T04:05:53.717Z,31.93
2019-04-06T04:08:23.712Z,43.80
2019-04-06T04:10:53.714Z,41.13
2019-04-06T04:13:23.737Z,45.07
2019-04-06T04:15:56.532Z,32.30
2019-04-06T04:18:25.922Z,44.80
2019-04-06T04:20:56.177Z,39.93
2019-04-06T04:23:26.333Z,35.30
2019-04-06T04:25:56.608Z,43.57
2019-04-06T04:28:26.822Z,47.20
2019-04-06T04:30:56.821Z,44.70
2019-04-06T04:33:26.867Z,49.17
2019-04-06T04:35:56.926Z,44.30
2019-04-06T04:38:27.101Z,42.53
2019-04-06T04:40:57.144Z,50.33
2019-04-06T04:43:27.112Z,49.97
2019-04-06T04:45:57.180Z,40.33
2019-04-06T04:48:34.099Z,45.00
2019-04-06T04:51:04.556Z,43.73
2019-04-06T04:53:40.534Z,53.97
2019-04-06T04:56:10.699Z,52.20
2019-04-06T04:58:40.991Z,51.70
2019-04-06T05:01:11.089Z,58.87
2019-04-06T05:03:41.180Z,57.57
2019-04-06T05:06:12.882Z,56.60
2019-04-06T05:08:43.007Z,56.37
2019-04-06T05:11:13.372Z,49.63
2019-04-06T05:13:43.671Z,50.43
2019-04-06T05:16:14.529Z,44.27
2019-04-06T05:18:44.773Z,58.70
2019-04-06T05:21:15.169Z,56.87
2019-04-06T05:23:45.451Z,53.07
2019-04-06T05:26:15.602Z,51.13
2019-04-06T05:28:45.712Z,49.17
2019-04-06T05:31:18.787Z,56.63
2019-04-06T05:33:48.935Z,46.23
2019-04-06T05:36:18.941Z,54.07
2019-04-06T05:38:49.378Z,48.07
2019-04-06T05:41:21.562Z,54.00
2019-04-06T05:43:52.489Z,44.53
2019-04-06T05:46:22.633Z,54.97
2019-04-06T05:48:53.106Z,58.23
2019-04-06T05:51:23.256Z,52.13
2019-04-06T05:53:53.357Z,43.70
2019-04-06T05:56:23.504Z,39.67
2019-04-06T05:58:53.831Z,59.97
2019-04-06T06:01:23.930Z,50.77
2019-04-06T06:03:53.938Z,64.00
2019-04-06T06:06:23.955Z,50.83
2019-04-06T06:08:53.950Z,55.93
2019-04-06T06:11:24.482Z,58.50
2019-04-06T06:13:54.531Z,65.27
2019-04-06T06:16:24.595Z,58.73
2019-04-06T06:18:54.730Z,71.80
2019-04-06T06:21:25.332Z,71.33
2019-04-06T06:23:55.389Z,82.60
2019-04-06T06:26:25.712Z,82.23
2019-04-06T06:28:57.719Z,85.97
2019-04-06T06:31:27.867Z,72.70
2019-04-06T06:33:58.007Z,77.63
2019-04-06T06:36:28.052Z,67.33
2019-04-06T06:38:58.059Z,96.57
2019-04-06T06:41:28.191Z,72.90
2019-04-06T06:43:58.342Z,69.87
2019-04-06T06:46:28.421Z,85.73
2019-04-06T06:48:58.906Z,96.53
2019-04-06T06:51:29.387Z,84.63
2019-04-06T06:53:59.621Z,107.60
2019-04-06T06:56:29.907Z,81.07
2019-04-06T06:59:01.121Z,77.47
2019-04-06T07:01:31.205Z,82.87
2019-04-06T07:04:01.183Z,93.47
2019-04-06T07:06:31.217Z,102.83
2019-04-06T07:09:01.364Z,82.33
2019-04-06T07:11:33.052Z,98.20
2019-04-06T07:14:04.096Z,113.43
2019-04-06T07:16:34.315Z,101.33
2019-04-06T07:19:04.700Z,103.38
2019-04-06T07:21:34.826Z,99.00
2019-04-06T07:24:05.115Z,97.43
2019-04-06T07:26:35.669Z,99.70
2019-04-06T07:29:06.008Z,89.10
2019-04-06T07:31:36.329Z,84.50
2019-04-06T07:34:06.488Z,108.23
2019-04-06T07:36:36.559Z,84.07
2019-04-06T07:39:07.670Z,98.53
2019-04-06T07:41:37.653Z,99.50
2019-04-06T07:44:07.771Z,84.00
2019-04-06T07:46:38.317Z,83.30
2019-04-06T07:49:10.326Z,79.57
2019-04-06T07:51:40.502Z,85.50
2019-04-06T07:54:10.507Z,82.13
2019-04-06T07:56:40.534Z,81.93
2019-04-06T07:59:10.533Z,71.00
2019-04-06T08:01:40.533Z,76.87
2019-04-06T08:04:10.533Z,73.67
2019-04-06T08:06:40.873Z,75.00
2019-04-06T08:09:10.982Z,69.37
2019-04-06T08:11:40.955Z,68.83
2019-04-06T08:14:11.032Z,65.73
2019-04-06T08:16:41.006Z,70.13
2019-04-06T08:19:11.001Z,62.47
2019-04-06T08:21:41.166Z,66.87
2019-04-06T08:24:13.264Z,59.47
2019-04-06T08:26:43.282Z,57.93
2019-04-06T08:29:13.496Z,64.87
2019-04-06T08:31:44.145Z,62.77
2019-04-06T08:34:14.256Z,61.50
2019-04-06T08:36:44.314Z,62.60
2019-04-06T08:39:14.263Z,57.17
2019-04-06T08:41:44.393Z,58.57
2019-04-06T08:44:16.406Z,64.17
2019-04-06T08:46:46.643Z,60.50
2019-04-06T08:49:17.866Z,54.53
2019-04-06T08:51:47.933Z,58.57
2019-04-06T08:54:17.908Z,53.30
2019-04-06T08:56:47.891Z,56.13
2019-04-06T08:59:18.232Z,59.67
2019-04-06T09:01:48.260Z,53.20
2019-04-06T09:04:18.696Z,56.47
2019-04-06T09:06:48.841Z,55.53
2019-04-06T09:09:18.902Z,59.53
2019-04-06T09:11:48.910Z,53.23
2019-04-06T09:14:18.854Z,52.67
2019-04-06T09:16:48.905Z,51.27
2019-04-06T09:19:18.976Z,59.37
2019-04-06T09:21:49.142Z,52.10
2019-04-06T09:24:20.241Z,48.73
2019-04-06T09:26:50.267Z,51.33
2019-04-06T09:29:24.154Z,54.37
2019-04-06T09:31:52.019Z,53.63
2019-04-06T09:34:22.250Z,51.27
2019-04-06T09:36:52.355Z,53.00
2019-04-06T09:39:22.472Z,48.73
2019-04-06T09:41:52.518Z,57.47
2019-04-06T09:44:44.541Z,52.90
2019-04-06T09:47:46.212Z,53.17
2019-04-06T09:50:44.458Z,52.33
2019-04-06T09:53:33.754Z,50.73
2019-04-06T09:56:42.795Z,51.13
2019-04-06T09:59:36.249Z,45.80
2019-04-06T10:02:34.063Z,47.73
2019-04-06T10:05:14.622Z,43.75
2019-04-06T10:08:04.377Z,50.07
2019-04-06T10:10:57.084Z,53.20
2019-04-06T10:13:46.562Z,49.27
2019-04-06T10:16:38.756Z,48.00
2019-04-06T10:19:38.662Z,51.20
2019-04-06T10:22:37.054Z,49.90
2019-04-06T10:28:40.226Z,47.17
2019-04-06T10:31:28.278Z,47.70
2019-04-06T10:34:08.938Z,46.67
2019-04-06T10:36:45.517Z,46.40
2019-04-06T10:39:34.746Z,46.27
2019-04-06T10:42:17.726Z,46.40
2019-04-06T10:45:07.270Z,51.53
2019-04-06T10:47:55.784Z,48.13
2019-04-06T10:51:04.014Z,49.20
2019-04-06T10:53:40.080Z,43.93
2019-04-06T10:56:21.416Z,53.77
2019-04-06T10:59:09.266Z,52.20
2019-04-06T11:01:48.853Z,50.27
2019-04-06T11:04:32.117Z,57.17
2019-04-06T11:07:10.515Z,50.67
2019-04-06T11:09:54.115Z,52.73
2019-04-06T11:12:37.772Z,46.53
2019-04-06T11:15:23.835Z,57.43
2019-04-06T11:18:05.859Z,53.70
2019-04-06T11:20:43.685Z,48.87
2019-04-06T11:23:31.486Z,50.63
2019-04-06T11:26:19.225Z,52.33
2019-04-06T11:29:08.624Z,49.97
2019-04-06T11:31:44.381Z,55.73
2019-04-06T11:34:32.530Z,53.67
2019-04-06T11:37:20.752Z,50.43
2019-04-06T11:40:22.323Z,50.80
2019-04-06T11:43:11.168Z,54.13
2019-04-06T11:46:02.073Z,50.23
2019-04-06T11:48:54.484Z,49.47
2019-04-06T11:51:42.758Z,49.07
2019-04-06T11:54:31.973Z,51.53
2019-04-06T11:57:23.872Z,52.57
2019-04-06T12:00:10.871Z,42.87
2019-04-06T12:03:06.260Z,50.67
2019-04-06T12:06:02.321Z,44.70
2019-04-06T12:09:07.268Z,53.90
2019-04-06T12:11:55.517Z,43.80
2019-04-06T12:14:43.480Z,52.83
2019-04-06T12:17:35.649Z,45.50
2019-04-06T12:20:25.172Z,43.20
2019-04-06T12:23:23.450Z,49.17
2019-04-06T12:26:09.452Z,52.87
2019-04-06T12:29:07.827Z,45.20
2019-04-06T12:31:59.166Z,52.30
2019-04-06T12:35:01.924Z,46.93
2019-04-06T12:37:41.550Z,40.67
2019-04-06T12:40:31.890Z,48.43
2019-04-06T12:43:25.337Z,45.03
2019-04-06T12:46:20.396Z,48.87
2019-04-06T12:49:10.236Z,46.80
2019-04-06T12:51:48.747Z,48.30
2019-04-06T12:54:37.474Z,46.23
2019-04-06T12:57:26.475Z,51.37
2019-04-06T13:00:22.043Z,45.53
2019-04-06T13:03:14.673Z,46.27
2019-04-06T13:05:51.048Z,48.80
2019-04-06T13:08:37.645Z,43.53
2019-04-06T13:11:32.004Z,46.47
2019-04-06T13:14:16.915Z,44.50
2019-04-06T13:17:09.497Z,41.33
2019-04-06T13:20:00.176Z,42.00
2019-04-06T13:22:44.256Z,45.20
2019-04-06T13:25:32.346Z,42.00
2019-04-06T13:28:18.711Z,44.80
2019-04-06T13:31:16.597Z,41.77
2019-04-06T13:34:09.044Z,41.67
2019-04-06T13:36:58.367Z,43.47
2019-04-06T13:39:50.285Z,47.23
2019-04-06T13:42:44.078Z,44.57
2019-04-06T13:45:22.464Z,41.80
2019-04-06T13:48:21.289Z,38.77
2019-04-06T13:51:01.118Z,45.50
2019-04-06T13:54:02.338Z,39.97
2019-04-06T13:57:06.925Z,46.73
2019-04-06T13:59:49.960Z,43.03
2019-04-06T14:02:26.982Z,39.85
2019-04-06T14:05:34.935Z,48.63
2019-04-06T14:08:21.363Z,39.13
2019-04-06T14:10:57.771Z,44.07
2019-04-06T14:13:45.520Z,51.00
2019-04-06T14:16:23.919Z,49.40
2019-04-06T14:19:12.340Z,42.57
2019-04-06T14:21:52.309Z,37.73
2019-04-06T14:24:35.251Z,42.63
2019-04-06T14:27:33.768Z,42.43
2019-04-06T14:30:12.343Z,43.63
2019-04-06T14:33:00.310Z,46.53
2019-04-06T14:35:48.426Z,42.53
2019-04-06T14:38:41.133Z,42.23
2019-04-06T14:41:26.321Z,44.90
2019-04-06T14:44:16.549Z,45.37
2019-04-06T14:47:03.222Z,41.13
2019-04-06T14:49:54.482Z,40.10
2019-04-06T14:52:46.505Z,39.57
2019-04-06T14:55:24.468Z,37.00
2019-04-06T14:58:15.736Z,37.13
2019-04-06T15:00:54.966Z,38.57
2019-04-06T15:03:35.138Z,38.10
2019-04-06T15:06:16.330Z,35.97
2019-04-06T15:09:17.718Z,35.23
2019-04-06T15:12:03.748Z,39.73
2019-04-06T15:14:44.000Z,45.00
2019-04-06T15:17:20.570Z,37.47
2019-04-06T15:20:05.835Z,36.00
2019-04-06T15:23:00.792Z,38.37
2019-04-06T15:25:49.465Z,41.43
2019-04-06T15:28:27.973Z,44.97
2019-04-06T15:31:23.399Z,38.87
2019-04-06T15:34:02.753Z,38.23
2019-04-06T15:36:38.473Z,41.30
2019-04-06T15:39:18.541Z,37.17
2019-04-06T15:42:10.820Z,32.00
2019-04-06T15:44:53.748Z,39.00
2019-04-06T15:47:43.428Z,37.23
2019-04-06T15:50:25.836Z,38.53
2019-04-06T15:53:12.134Z,33.70
2019-04-06T15:55:48.671Z,34.20
2019-04-06T15:58:38.106Z,34.10
2019-04-06T16:01:35.006Z,35.70
2019-04-06T16:04:27.638Z,38.97
2019-04-06T16:07:15.613Z,40.87
2019-04-06T16:10:07.892Z,37.83
2019-04-06T16:12:56.178Z,41.33
2019-04-06T16:15:42.673Z,33.37
2019-04-06T16:18:28.124Z,35.57
2019-04-06T16:21:32.886Z,40.47
2019-04-06T16:24:22.969Z,34.57
2019-04-06T16:27:10.740Z,35.10
2019-04-06T16:30:12.288Z,35.87
2019-04-06T16:33:01.577Z,37.37
2019-04-06T16:35:43.811Z,30.10
2019-04-06T16:38:33.228Z,45.97
2019-04-06T16:41:21.016Z,30.70
2019-04-06T16:44:28.497Z,32.00
2019-04-06T16:47:16.936Z,39.97
2019-04-06T16:50:09.502Z,36.77
2019-04-06T16:53:04.848Z,30.23
2019-04-06T16:55:54.506Z,34.93
2019-04-06T16:58:42.619Z,36.80
2019-04-06T17:01:23.914Z,33.97
2019-04-06T17:04:06.111Z,38.50
2019-04-06T17:07:13.760Z,32.10
2019-04-06T17:09:56.810Z,32.63
2019-04-06T17:12:42.174Z,31.43
2019-04-06T17:15:28.569Z,29.27
2019-04-06T17:18:17.748Z,36.17
2019-04-06T17:21:16.034Z,28.70
2019-04-06T17:23:59.623Z,40.50
2019-04-06T17:26:43.706Z,30.27
2019-04-06T17:29:44.941Z,29.57
2019-04-06T17:32:34.745Z,27.50
2019-04-06T17:35:02.663Z,28.83
2019-04-06T17:37:38.126Z,28.90
2019-04-06T17:40:16.071Z,26.13
2019-04-06T17:43:08.605Z,29.00
2019-04-06T17:45:52.164Z,26.50
2019-04-06T17:48:56.897Z,31.60
2019-04-06T17:51:35.346Z,26.87
2019-04-06T17:54:31.074Z,29.23
2019-04-06T17:57:20.438Z,30.03
2019-04-06T18:00:08.684Z,27.80
2019-04-06T18:03:01.737Z,25.63
2019-04-06T18:05:43.887Z,27.17
2019-04-06T18:08:35.326Z,27.63
2019-04-06T18:11:14.931Z,25.60
2019-04-06T18:13:52.959Z,24.33
2019-04-06T18:16:25.947Z,24.10
2019-04-06T18:18:56.790Z,25.97
2019-04-06T18:21:26.805Z,24.13
2019-04-06T18:23:56.782Z,25.00
2019-04-06T18:26:27.012Z,26.70
2019-04-06T18:28:57.405Z,22.13
2019-04-06T18:31:52.633Z,24.97
2019-04-06T18:34:23.824Z,25.03
2019-04-06T18:37:12.269Z,25.43
2019-04-06T18:39:42.423Z,24.50
2019-04-06T18:42:12.508Z,30.43
2019-04-06T18:44:42.592Z,23.97
2019-04-06T18:47:12.947Z,27.83
2019-04-06T18:49:43.083Z,21.67
2019-04-06T18:52:13.338Z,25.20
2019-04-06T18:54:43.878Z,25.20
2019-04-06T18:57:14.381Z,24.77
2019-04-06T18:59:44.823Z,24.13
2019-04-06T19:02:15.128Z,26.83
2019-04-06T19:04:45.251Z,24.67
2019-04-06T19:07:15.470Z,22.17
2019-04-06T19:09:46.489Z,26.07
2019-04-06T19:12:16.701Z,24.07
2019-04-06T19:14:48.087Z,25.13
2019-04-06T19:17:18.724Z,26.77
2019-04-06T19:19:48.909Z,25.83
2019-04-06T19:22:19.350Z,22.13
2019-04-06T19:24:49.946Z,27.73
2019-04-06T19:27:20.555Z,24.27
2019-04-06T19:29:50.905Z,26.30
2019-04-06T19:32:21.564Z,24.03
2019-04-06T19:34:52.151Z,25.30
2019-04-06T19:37:22.661Z,23.20
2019-04-06T19:39:52.920Z,25.03
2019-04-06T19:42:23.219Z,22.73
2019-04-06T19:44:53.636Z,26.20
2019-04-06T19:47:23.705Z,46.67
2019-04-06T19:49:53.742Z,24.90
2019-04-06T19:52:24.800Z,49.63
2019-04-06T19:54:54.809Z,25.90
2019-04-06T19:57:24.995Z,35.93
2019-04-06T19:59:55.174Z,35.90
2019-04-06T20:02:26.251Z,30.03
2019-04-06T20:04:56.446Z,28.90
2019-04-06T20:07:26.479Z,43.43
2019-04-06T20:09:56.783Z,29.67
2019-04-06T20:12:26.973Z,29.67
2019-04-06T20:14:57.232Z,49.40
2019-04-06T20:17:27.690Z,40.23
2019-04-06T20:19:58.808Z,37.23
2019-04-06T20:22:28.761Z,39.73
2019-04-06T20:24:58.905Z,47.13
2019-04-06T20:27:29.079Z,33.73
2019-04-06T20:29:59.204Z,36.17
2019-04-06T20:32:29.208Z,48.63
2019-04-06T20:34:59.527Z,50.53
2019-04-06T20:37:29.580Z,41.03
2019-04-06T20:39:59.567Z,41.93
2019-04-06T20:42:29.662Z,43.43
2019-04-06T20:45:00.814Z,34.93
2019-04-06T20:47:30.782Z,38.43
2019-04-06T20:50:01.790Z,43.63
2019-04-06T20:52:32.697Z,39.43
2019-04-06T20:55:04.052Z,41.07
2019-04-06T20:57:34.277Z,48.97
2019-04-06T21:00:05.987Z,37.30
2019-04-06T21:02:37.752Z,39.90
2019-04-06T21:05:07.967Z,43.90
2019-04-06T21:07:38.151Z,42.40
2019-04-06T21:10:08.793Z,33.53
2019-04-06T21:12:39.547Z,33.50
2019-04-06T21:15:16.903Z,32.33
2019-04-06T21:17:41.496Z,32.30
2019-04-06T21:20:13.246Z,31.87
2019-04-06T21:22:43.686Z,39.27
2019-04-06T21:25:14.012Z,39.90
2019-04-06T21:27:44.914Z,41.83
2019-04-06T21:30:15.875Z,39.83
2019-04-06T21:32:46.384Z,46.80
2019-04-06T21:35:16.506Z,44.67
2019-04-06T21:37:46.596Z,32.13
2019-04-06T21:40:16.990Z,37.00
2019-04-06T21:42:48.535Z,33.20
2019-04-06T21:45:18.751Z,41.53
2019-04-06T21:47:49.547Z,39.00
2019-04-06T21:50:19.635Z,44.97
2019-04-06T21:52:49.716Z,32.80
2019-04-06T21:55:19.788Z,35.10
2019-04-06T21:57:49.757Z,35.27
2019-04-06T22:00:38.443Z,31.93
2019-04-06T22:03:11.121Z,36.80
2019-04-06T22:05:43.273Z,40.73
2019-04-06T22:08:15.816Z,34.73
2019-04-06T22:10:47.322Z,39.23
2019-04-06T22:13:18.367Z,39.70
2019-04-06T22:15:48.788Z,43.77
2019-04-06T22:18:19.300Z,39.60
2019-04-06T22:20:50.037Z,38.93
2019-04-06T22:23:20.804Z,39.93
2019-04-06T22:25:51.404Z,43.40
2019-04-06T22:28:21.958Z,40.87
2019-04-06T22:30:52.096Z,34.13
2019-04-06T22:33:22.432Z,31.10
2019-04-06T22:35:52.993Z,44.10
2019-04-06T22:38:24.272Z,38.53
2019-04-06T22:40:54.321Z,37.47
2019-04-06T22:43:24.913Z,40.43
2019-04-06T22:45:55.099Z,40.15
2019-04-06T22:48:25.298Z,41.67
2019-04-06T22:50:55.418Z,38.67
2019-04-06T22:53:25.464Z,43.33
2019-04-06T22:55:56.247Z,40.57
2019-04-06T22:58:27.748Z,33.27
2019-04-06T23:01:03.744Z,45.43
2019-04-06T23:04:05.176Z,43.20
2019-04-06T23:06:57.468Z,44.23
2019-04-06T23:09:27.947Z,44.30
2019-04-06T23:11:58.064Z,50.70
2019-04-06T23:14:28.417Z,50.93
2019-04-06T23:16:58.671Z,45.30
2019-04-06T23:19:30.894Z,47.63
2019-04-06T23:22:01.146Z,42.87
2019-04-06T23:24:32.950Z,41.10
2019-04-06T23:27:04.555Z,42.63
2019-04-06T23:29:34.782Z,46.63
2019-04-06T23:32:05.332Z,39.77
2019-04-06T23:34:35.509Z,34.10
2019-04-06T23:37:06.176Z,42.77
2019-04-06T23:39:36.486Z,46.87
2019-04-06T23:42:06.908Z,34.13
2019-04-06T23:44:37.335Z,36.33
2019-04-06T23:47:08.023Z,46.83
2019-04-06T23:49:38.428Z,42.33
2019-04-06T23:52:08.510Z,45.60
2019-04-06T23:54:38.560Z,28.60
2019-04-06T23:57:09.218Z,50.23
2019-04-06T23:59:39.572Z,35.97
